Date,TemperatureHighF,TemperatureAvgF,TemperatureLowF,DewpointHighF,DewpointAvgF,DewpointLowF,HumidityHigh,HumidityAvg,HumidityLow,PressureMaxIn,PressureMinIn,WindSpeedMaxMPH,WindSpeedAvgMPH,GustSpeedMaxMPH,PrecipitationSumIn
2013-3-1,44,39,32,31,26,23,87,62,48,0.00,40.00,7,4,14,0.00
2013-3-2,45,37,32,34,27,18,87,68,39,0.00,40.00,9,4,19,0.00
2013-3-3,42,32,20,21,15,13,80,50,33,0.00,40.00,8,4,16,0.00
2013-3-4,54,38,24,21,12,7,58,37,15,0.00,40.00,7,4,17,0.00
2013-3-5,45,40,36,41,32,21,99,76,44,0.00,40.00,5,2,10,0.55
2013-3-6,44,37,32,40,24,18,100,58,45,0.00,40.00,13,7,28,0.47
2013-3-7,51,39,27,28,24,21,85,57,37,0.00,40.00,7,5,16,0.00
2013-3-8,56,41,27,27,21,17,76,47,24,0.00,40.00,9,4,18,0.00
2013-3-9,63,45,27,31,27,22,84,53,27,0.00,40.00,5,2,10,0.00
2013-3-10,65,53,39,38,33,28,73,48,30,0.00,40.00,7,3,13,0.00
2013-3-11,65,53,41,53,38,26,95,59,42,0.00,40.00,9,4,19,0.18
2013-3-12,62,54,45,56,44,29,100,72,33,0.00,40.00,8,5,16,1.23
2013-3-13,51,42,34,30,22,13,78,46,29,0.00,40.00,11,6,23,0.05
2013-3-14,52,39,29,15,13,9,55,36,18,0.00,40.00,9,5,19,0.00
2013-3-15,64,47,30,36,25,15,69,44,32,0.00,40.00,11,5,20,0.00
2013-3-16,78,62,44,46,42,35,75,51,26,0.00,40.00,13,6,25,0.00
2013-3-17,63,54,40,51,45,37,89,73,50,0.00,40.00,5,3,14,0.00
2013-3-18,40,37,36,37,36,35,98,96,89,0.00,40.00,4,3,12,0.30
2013-3-19,62,47,35,39,26,6,100,56,16,0.00,40.00,12,6,24,0.27
2013-3-20,56,46,37,15,9,4,28,23,17,0.00,40.00,9,5,20,0.00
2013-3-21,45,35,29,22,10,6,53,36,26,0.00,40.00,12,6,22,0.00
2013-3-22,51,35,19,20,14,8,77,45,24,0.00,40.00,9,4,17,0.00
2013-3-23,59,45,35,32,27,20,72,49,33,0.00,40.00,4,2,10,0.00
2013-3-24,45,40,35,42,38,32,98,91,59,0.00,40.00,5,3,12,0.68
2013-3-25,43,38,33,35,27,19,99,70,39,0.00,40.00,14,7,25,0.02
2013-3-26,45,38,32,26,21,19,74,50,38,0.00,40.00,10,6,19,0.01
2013-3-27,49,39,32,26,21,18,72,50,30,0.00,40.00,7,4,20,0.00
2013-3-28,53,47,35,23,19,16,54,34,23,0.00,40.00,8,4,18,0.00
2013-3-29,60,44,26,32,24,19,84,50,21,0.00,40.00,9,3,19,0.00
2013-3-30,63,50,36,39,32,27,84,54,29,0.00,40.00,7,3,14,0.00
2013-3-31,67,53,47,54,47,-100,100,86,59,0.00,40.00,9,3,17,0.31